sensor_id;sensor_type;location;lat;lon;timestamp;P1;durP1;ratioP1;P2;durP2;ratioP2
21833;SDS011;11079;51.092;3.458;2023-08-21T00:01:18;6.30;;;2.30;;
21833;SDS011;11079;51.092;3.458;2023-08-21T00:03:44;5.88;;;2.38;;
21833;SDS011;11079;51.092;3.458;2023-08-21T00:06:11;7.15;;;2.20;;
21833;SDS011;11079;51.092;3.458;2023-08-21T00:08:37;7.80;;;2.38;;
21833;SDS011;11079;51.092;3.458;2023-08-21T00:11:03;7.93;;;2.85;;
21833;SDS011;11079;51.092;3.458;2023-08-21T00:13:28;9.68;;;2.20;;
21833;SDS011;11079;51.092;3.458;2023-08-21T00:15:54;4.60;;;2.40;;
21833;SDS011;11079;51.092;3.458;2023-08-21T00:18:20;7.05;;;2.10;;
21833;SDS011;11079;51.092;3.458;2023-08-21T00:20:47;4.55;;;1.83;;
21833;SDS011;11079;51.092;3.458;2023-08-21T00:23:14;5.85;;;1.75;;
21833;SDS011;11079;51.092;3.458;2023-08-21T00:25:40;6.63;;;2.03;;
21833;SDS011;11079;51.092;3.458;2023-08-21T00:28:10;5.35;;;2.35;;
21833;SDS011;11079;51.092;3.458;2023-08-21T00:30:37;8.52;;;2.67;;
21833;SDS011;11079;51.092;3.458;2023-08-21T00:33:03;7.50;;;3.05;;
21833;SDS011;11079;51.092;3.458;2023-08-21T00:35:29;5.97;;;2.58;;
21833;SDS011;11079;51.092;3.458;2023-08-21T00:37:55;10.45;;;3.88;;
21833;SDS011;11079;51.092;3.458;2023-08-21T00:40:21;7.10;;;3.10;;
21833;SDS011;11079;51.092;3.458;2023-08-21T00:42:48;9.82;;;3.13;;
21833;SDS011;11079;51.092;3.458;2023-08-21T00:45:14;6.75;;;3.00;;
21833;SDS011;11079;51.092;3.458;2023-08-21T00:47:40;6.50;;;2.95;;
21833;SDS011;11079;51.092;3.458;2023-08-21T00:50:09;5.80;;;2.78;;
21833;SDS011;11079;51.092;3.458;2023-08-21T00:52:45;10.27;;;2.88;;
21833;SDS011;11079;51.092;3.458;2023-08-21T00:55:12;5.32;;;2.17;;
21833;SDS011;11079;51.092;3.458;2023-08-21T00:57:40;5.65;;;2.70;;
21833;SDS011;11079;51.092;3.458;2023-08-21T01:00:07;6.40;;;2.40;;
21833;SDS011;11079;51.092;3.458;2023-08-21T01:05:10;10.40;;;2.97;;
21833;SDS011;11079;51.092;3.458;2023-08-21T01:07:38;6.70;;;3.03;;
21833;SDS011;11079;51.092;3.458;2023-08-21T01:10:22;8.80;;;2.90;;
21833;SDS011;11079;51.092;3.458;2023-08-21T01:13:00;6.78;;;3.05;;
21833;SDS011;11079;51.092;3.458;2023-08-21T01:15:30;8.48;;;3.35;;
21833;SDS011;11079;51.092;3.458;2023-08-21T01:17:56;7.28;;;3.00;;
21833;SDS011;11079;51.092;3.458;2023-08-21T01:20:24;9.02;;;3.28;;
21833;SDS011;11079;51.092;3.458;2023-08-21T01:22:50;8.20;;;3.35;;
21833;SDS011;11079;51.092;3.458;2023-08-21T01:25:18;5.63;;;2.97;;
21833;SDS011;11079;51.092;3.458;2023-08-21T01:27:45;7.22;;;3.35;;
21833;SDS011;11079;51.092;3.458;2023-08-21T01:30:15;9.98;;;3.67;;
21833;SDS011;11079;51.092;3.458;2023-08-21T01:35:28;11.68;;;3.15;;
21833;SDS011;11079;51.092;3.458;2023-08-21T01:37:56;9.75;;;3.30;;
21833;SDS011;11079;51.092;3.458;2023-08-21T01:40:22;7.43;;;3.35;;
21833;SDS011;11079;51.092;3.458;2023-08-21T01:42:49;9.73;;;3.53;;
21833;SDS011;11079;51.092;3.458;2023-08-21T01:45:17;10.15;;;4.15;;
21833;SDS011;11079;51.092;3.458;2023-08-21T01:47:43;8.63;;;3.50;;
21833;SDS011;11079;51.092;3.458;2023-08-21T01:50:08;6.95;;;3.75;;
21833;SDS011;11079;51.092;3.458;2023-08-21T01:52:34;9.40;;;3.58;;
21833;SDS011;11079;51.092;3.458;2023-08-21T01:55:01;8.57;;;4.07;;
21833;SDS011;11079;51.092;3.458;2023-08-21T01:57:28;7.47;;;4.00;;
21833;SDS011;11079;51.092;3.458;2023-08-21T01:59:54;13.05;;;4.65;;
21833;SDS011;11079;51.092;3.458;2023-08-21T02:02:20;7.45;;;4.13;;
21833;SDS011;11079;51.092;3.458;2023-08-21T02:04:46;8.00;;;4.78;;
21833;SDS011;11079;51.092;3.458;2023-08-21T02:07:13;10.50;;;4.43;;
21833;SDS011;11079;51.092;3.458;2023-08-21T02:09:41;11.68;;;4.57;;
21833;SDS011;11079;51.092;3.458;2023-08-21T02:12:10;8.40;;;3.92;;
21833;SDS011;11079;51.092;3.458;2023-08-21T02:14:35;8.02;;;4.13;;
21833;SDS011;11079;51.092;3.458;2023-08-21T02:17:07;12.13;;;4.88;;
21833;SDS011;11079;51.092;3.458;2023-08-21T02:19:34;11.85;;;5.00;;
21833;SDS011;11079;51.092;3.458;2023-08-21T02:22:08;8.75;;;4.55;;
21833;SDS011;11079;51.092;3.458;2023-08-21T02:24:36;8.32;;;4.60;;
21833;SDS011;11079;51.092;3.458;2023-08-21T02:27:05;6.47;;;4.53;;
21833;SDS011;11079;51.092;3.458;2023-08-21T02:29:30;10.85;;;4.43;;
21833;SDS011;11079;51.092;3.458;2023-08-21T02:32:01;9.00;;;5.07;;
21833;SDS011;11079;51.092;3.458;2023-08-21T02:34:27;8.05;;;4.57;;
21833;SDS011;11079;51.092;3.458;2023-08-21T02:36:53;9.07;;;4.93;;
21833;SDS011;11079;51.092;3.458;2023-08-21T02:39:18;6.88;;;4.50;;
21833;SDS011;11079;51.092;3.458;2023-08-21T02:41:44;14.23;;;5.45;;
21833;SDS011;11079;51.092;3.458;2023-08-21T02:44:36;12.95;;;5.50;;
21833;SDS011;11079;51.092;3.458;2023-08-21T02:47:04;10.50;;;5.30;;
21833;SDS011;11079;51.092;3.458;2023-08-21T02:49:38;13.90;;;5.95;;
21833;SDS011;11079;51.092;3.458;2023-08-21T02:57:15;10.95;;;5.15;;
21833;SDS011;11079;51.092;3.458;2023-08-21T02:59:41;8.85;;;5.25;;
21833;SDS011;11079;51.092;3.458;2023-08-21T03:02:07;11.00;;;5.30;;
21833;SDS011;11079;51.092;3.458;2023-08-21T03:04:34;15.73;;;5.57;;
21833;SDS011;11079;51.092;3.458;2023-08-21T03:07:00;12.45;;;5.97;;
21833;SDS011;11079;51.092;3.458;2023-08-21T03:09:25;11.40;;;5.97;;
21833;SDS011;11079;51.092;3.458;2023-08-21T03:11:51;14.65;;;5.75;;
21833;SDS011;11079;51.092;3.458;2023-08-21T03:14:17;15.77;;;6.40;;
21833;SDS011;11079;51.092;3.458;2023-08-21T03:16:42;14.60;;;6.68;;
21833;SDS011;11079;51.092;3.458;2023-08-21T03:19:08;13.20;;;6.25;;
21833;SDS011;11079;51.092;3.458;2023-08-21T03:21:34;12.20;;;5.25;;
21833;SDS011;11079;51.092;3.458;2023-08-21T03:24:00;16.38;;;6.28;;
21833;SDS011;11079;51.092;3.458;2023-08-21T03:26:27;15.05;;;5.70;;
21833;SDS011;11079;51.092;3.458;2023-08-21T03:28:53;12.27;;;5.97;;
21833;SDS011;11079;51.092;3.458;2023-08-21T03:31:19;14.98;;;6.43;;
21833;SDS011;11079;51.092;3.458;2023-08-21T03:33:45;17.23;;;6.47;;
21833;SDS011;11079;51.092;3.458;2023-08-21T03:36:11;13.60;;;5.82;;
21833;SDS011;11079;51.092;3.458;2023-08-21T03:38:37;14.52;;;6.00;;
21833;SDS011;11079;51.092;3.458;2023-08-21T03:41:03;10.00;;;5.72;;
21833;SDS011;11079;51.092;3.458;2023-08-21T03:43:31;14.43;;;6.45;;
21833;SDS011;11079;51.092;3.458;2023-08-21T03:45:57;10.15;;;6.25;;
21833;SDS011;11079;51.092;3.458;2023-08-21T03:48:23;17.05;;;7.10;;
21833;SDS011;11079;51.092;3.458;2023-08-21T03:50:54;15.18;;;6.95;;
21833;SDS011;11079;51.092;3.458;2023-08-21T03:53:20;10.60;;;6.03;;
21833;SDS011;11079;51.092;3.458;2023-08-21T03:55:45;14.82;;;5.95;;
21833;SDS011;11079;51.092;3.458;2023-08-21T03:58:13;14.93;;;6.78;;
21833;SDS011;11079;51.092;3.458;2023-08-21T04:00:39;16.77;;;7.00;;
21833;SDS011;11079;51.092;3.458;2023-08-21T04:05:40;13.20;;;7.32;;
21833;SDS011;11079;51.092;3.458;2023-08-21T04:08:08;11.60;;;7.00;;
21833;SDS011;11079;51.092;3.458;2023-08-21T04:10:37;14.38;;;7.72;;
21833;SDS011;11079;51.092;3.458;2023-08-21T04:13:07;15.00;;;7.97;;
21833;SDS011;11079;51.092;3.458;2023-08-21T04:15:33;16.08;;;8.55;;
21833;SDS011;11079;51.092;3.458;2023-08-21T04:18:02;14.52;;;7.43;;
21833;SDS011;11079;51.092;3.458;2023-08-21T04:20:28;21.02;;;7.70;;
21833;SDS011;11079;51.092;3.458;2023-08-21T04:22:54;13.48;;;6.90;;
21833;SDS011;11079;51.092;3.458;2023-08-21T04:25:20;11.25;;;7.10;;
21833;SDS011;11079;51.092;3.458;2023-08-21T04:27:48;13.65;;;6.60;;
21833;SDS011;11079;51.092;3.458;2023-08-21T04:30:15;15.95;;;6.22;;
21833;SDS011;11079;51.092;3.458;2023-08-21T04:32:41;15.90;;;7.65;;
21833;SDS011;11079;51.092;3.458;2023-08-21T04:35:07;16.40;;;6.90;;
21833;SDS011;11079;51.092;3.458;2023-08-21T04:37:34;12.32;;;7.10;;
21833;SDS011;11079;51.092;3.458;2023-08-21T04:40:05;12.85;;;7.15;;
21833;SDS011;11079;51.092;3.458;2023-08-21T04:42:32;13.95;;;7.07;;
21833;SDS011;11079;51.092;3.458;2023-08-21T04:44:58;19.35;;;8.05;;
21833;SDS011;11079;51.092;3.458;2023-08-21T04:47:24;18.00;;;8.70;;
21833;SDS011;11079;51.092;3.458;2023-08-21T04:49:51;20.58;;;9.80;;
21833;SDS011;11079;51.092;3.458;2023-08-21T04:52:18;17.10;;;9.43;;
21833;SDS011;11079;51.092;3.458;2023-08-21T04:54:46;14.15;;;8.45;;
21833;SDS011;11079;51.092;3.458;2023-08-21T04:57:14;20.35;;;9.15;;
21833;SDS011;11079;51.092;3.458;2023-08-21T04:59:40;22.05;;;9.40;;
21833;SDS011;11079;51.092;3.458;2023-08-21T05:02:06;14.25;;;9.15;;
21833;SDS011;11079;51.092;3.458;2023-08-21T05:04:32;17.85;;;9.32;;
21833;SDS011;11079;51.092;3.458;2023-08-21T05:06:59;21.65;;;9.65;;
21833;SDS011;11079;51.092;3.458;2023-08-21T05:09:25;30.20;;;10.57;;
21833;SDS011;11079;51.092;3.458;2023-08-21T05:11:51;20.40;;;9.63;;
21833;SDS011;11079;51.092;3.458;2023-08-21T05:14:17;17.92;;;9.40;;
21833;SDS011;11079;51.092;3.458;2023-08-21T05:16:44;22.20;;;10.00;;
21833;SDS011;11079;51.092;3.458;2023-08-21T05:19:12;17.92;;;9.73;;
21833;SDS011;11079;51.092;3.458;2023-08-21T05:21:38;22.02;;;10.38;;
21833;SDS011;11079;51.092;3.458;2023-08-21T05:24:04;16.20;;;9.10;;
21833;SDS011;11079;51.092;3.458;2023-08-21T05:26:31;16.88;;;8.85;;
21833;SDS011;11079;51.092;3.458;2023-08-21T05:28:57;16.85;;;8.00;;
21833;SDS011;11079;51.092;3.458;2023-08-21T05:31:23;16.63;;;9.32;;
21833;SDS011;11079;51.092;3.458;2023-08-21T05:33:48;16.00;;;8.85;;
21833;SDS011;11079;51.092;3.458;2023-08-21T05:36:14;17.08;;;9.27;;
21833;SDS011;11079;51.092;3.458;2023-08-21T05:38:40;17.40;;;8.88;;
21833;SDS011;11079;51.092;3.458;2023-08-21T05:41:07;14.80;;;8.10;;
21833;SDS011;11079;51.092;3.458;2023-08-21T05:43:35;15.30;;;8.48;;
21833;SDS011;11079;51.092;3.458;2023-08-21T05:46:01;15.70;;;7.95;;
21833;SDS011;11079;51.092;3.458;2023-08-21T05:48:29;22.95;;;9.82;;
21833;SDS011;11079;51.092;3.458;2023-08-21T05:50:58;23.42;;;9.10;;
21833;SDS011;11079;51.092;3.458;2023-08-21T05:53:23;25.10;;;9.45;;
21833;SDS011;11079;51.092;3.458;2023-08-21T05:55:49;25.00;;;10.63;;
21833;SDS011;11079;51.092;3.458;2023-08-21T05:58:16;25.55;;;8.68;;
21833;SDS011;11079;51.092;3.458;2023-08-21T06:00:42;30.15;;;10.52;;
21833;SDS011;11079;51.092;3.458;2023-08-21T06:03:09;24.67;;;10.88;;
21833;SDS011;11079;51.092;3.458;2023-08-21T06:05:38;25.83;;;11.52;;
21833;SDS011;11079;51.092;3.458;2023-08-21T06:08:05;24.98;;;10.57;;
21833;SDS011;11079;51.092;3.458;2023-08-21T06:10:33;33.20;;;11.20;;
21833;SDS011;11079;51.092;3.458;2023-08-21T06:12:59;29.50;;;10.38;;
21833;SDS011;11079;51.092;3.458;2023-08-21T06:15:30;32.13;;;11.00;;
21833;SDS011;11079;51.092;3.458;2023-08-21T06:18:00;31.73;;;11.90;;
21833;SDS011;11079;51.092;3.458;2023-08-21T06:20:38;28.90;;;11.73;;
21833;SDS011;11079;51.092;3.458;2023-08-21T06:23:28;34.38;;;12.20;;
21833;SDS011;11079;51.092;3.458;2023-08-21T06:26:07;30.92;;;11.43;;
21833;SDS011;11079;51.092;3.458;2023-08-21T06:28:34;26.20;;;12.23;;
21833;SDS011;11079;51.092;3.458;2023-08-21T06:31:09;24.60;;;10.73;;
21833;SDS011;11079;51.092;3.458;2023-08-21T06:36:13;22.40;;;10.30;;
21833;SDS011;11079;51.092;3.458;2023-08-21T06:38:38;21.08;;;10.63;;
21833;SDS011;11079;51.092;3.458;2023-08-21T06:41:04;19.25;;;10.23;;
21833;SDS011;11079;51.092;3.458;2023-08-21T06:43:30;23.52;;;10.68;;
21833;SDS011;11079;51.092;3.458;2023-08-21T06:45:56;16.90;;;9.90;;
21833;SDS011;11079;51.092;3.458;2023-08-21T06:48:43;19.88;;;9.98;;
21833;SDS011;11079;51.092;3.458;2023-08-21T06:51:09;23.88;;;11.23;;
21833;SDS011;11079;51.092;3.458;2023-08-21T06:53:36;20.58;;;9.85;;
21833;SDS011;11079;51.092;3.458;2023-08-21T06:56:02;23.42;;;10.13;;
21833;SDS011;11079;51.092;3.458;2023-08-21T06:58:27;16.42;;;9.45;;
21833;SDS011;11079;51.092;3.458;2023-08-21T07:00:54;15.45;;;8.68;;
21833;SDS011;11079;51.092;3.458;2023-08-21T07:03:24;16.27;;;8.55;;
21833;SDS011;11079;51.092;3.458;2023-08-21T07:05:54;15.93;;;8.43;;
21833;SDS011;11079;51.092;3.458;2023-08-21T07:08:23;14.18;;;7.43;;
21833;SDS011;11079;51.092;3.458;2023-08-21T07:10:50;14.20;;;7.85;;
21833;SDS011;11079;51.092;3.458;2023-08-21T07:13:16;14.40;;;7.45;;
21833;SDS011;11079;51.092;3.458;2023-08-21T07:15:42;12.85;;;8.10;;
21833;SDS011;11079;51.092;3.458;2023-08-21T07:18:07;13.77;;;7.85;;
21833;SDS011;11079;51.092;3.458;2023-08-21T07:20:36;13.68;;;7.65;;
21833;SDS011;11079;51.092;3.458;2023-08-21T07:23:06;15.98;;;7.63;;
21833;SDS011;11079;51.092;3.458;2023-08-21T07:25:35;11.00;;;7.10;;
21833;SDS011;11079;51.092;3.458;2023-08-21T07:28:00;12.02;;;7.22;;
21833;SDS011;11079;51.092;3.458;2023-08-21T07:30:26;13.60;;;8.05;;
21833;SDS011;11079;51.092;3.458;2023-08-21T07:32:52;11.45;;;7.22;;
21833;SDS011;11079;51.092;3.458;2023-08-21T07:35:19;11.15;;;6.82;;
21833;SDS011;11079;51.092;3.458;2023-08-21T07:37:45;10.77;;;6.85;;
21833;SDS011;11079;51.092;3.458;2023-08-21T07:40:11;14.45;;;7.22;;
21833;SDS011;11079;51.092;3.458;2023-08-21T07:42:37;10.02;;;6.80;;
21833;SDS011;11079;51.092;3.458;2023-08-21T07:45:03;11.52;;;7.50;;
21833;SDS011;11079;51.092;3.458;2023-08-21T07:47:30;11.88;;;7.05;;
21833;SDS011;11079;51.092;3.458;2023-08-21T07:49:56;14.32;;;7.05;;
21833;SDS011;11079;51.092;3.458;2023-08-21T07:52:25;10.82;;;6.32;;
21833;SDS011;11079;51.092;3.458;2023-08-21T07:54:53;15.20;;;7.78;;
21833;SDS011;11079;51.092;3.458;2023-08-21T07:57:19;10.02;;;6.97;;
21833;SDS011;11079;51.092;3.458;2023-08-21T07:59:45;10.85;;;6.68;;
21833;SDS011;11079;51.092;3.458;2023-08-21T08:02:11;14.38;;;7.78;;
21833;SDS011;11079;51.092;3.458;2023-08-21T08:04:37;12.02;;;7.22;;
21833;SDS011;11079;51.092;3.458;2023-08-21T08:07:03;9.10;;;7.20;;
21833;SDS011;11079;51.092;3.458;2023-08-21T08:09:29;9.85;;;6.47;;
21833;SDS011;11079;51.092;3.458;2023-08-21T08:11:55;11.25;;;7.50;;
21833;SDS011;11079;51.092;3.458;2023-08-21T08:14:21;12.25;;;7.65;;
21833;SDS011;11079;51.092;3.458;2023-08-21T08:16:46;13.05;;;7.10;;
21833;SDS011;11079;51.092;3.458;2023-08-21T08:19:12;12.02;;;7.15;;
21833;SDS011;11079;51.092;3.458;2023-08-21T08:21:38;12.50;;;7.00;;
21833;SDS011;11079;51.092;3.458;2023-08-21T08:24:04;11.85;;;7.80;;
21833;SDS011;11079;51.092;3.458;2023-08-21T08:26:29;11.32;;;7.43;;
21833;SDS011;11079;51.092;3.458;2023-08-21T08:28:55;10.43;;;6.68;;
21833;SDS011;11079;51.092;3.458;2023-08-21T08:31:21;11.88;;;7.38;;
21833;SDS011;11079;51.092;3.458;2023-08-21T08:33:48;9.48;;;6.85;;
21833;SDS011;11079;51.092;3.458;2023-08-21T08:36:14;13.13;;;8.15;;
21833;SDS011;11079;51.092;3.458;2023-08-21T08:38:40;12.13;;;7.40;;
21833;SDS011;11079;51.092;3.458;2023-08-21T08:41:07;12.98;;;6.90;;
21833;SDS011;11079;51.092;3.458;2023-08-21T08:43:39;13.20;;;7.63;;
21833;SDS011;11079;51.092;3.458;2023-08-21T08:46:06;9.50;;;7.10;;
21833;SDS011;11079;51.092;3.458;2023-08-21T08:48:34;13.02;;;8.30;;
21833;SDS011;11079;51.092;3.458;2023-08-21T08:51:01;12.73;;;8.02;;
21833;SDS011;11079;51.092;3.458;2023-08-21T08:53:29;10.27;;;7.00;;
21833;SDS011;11079;51.092;3.458;2023-08-21T08:55:56;14.63;;;7.20;;
21833;SDS011;11079;51.092;3.458;2023-08-21T08:58:22;13.85;;;8.60;;
21833;SDS011;11079;51.092;3.458;2023-08-21T09:00:48;13.77;;;8.80;;
21833;SDS011;11079;51.092;3.458;2023-08-21T09:03:14;13.80;;;8.13;;
21833;SDS011;11079;51.092;3.458;2023-08-21T09:05:41;12.40;;;8.25;;
21833;SDS011;11079;51.092;3.458;2023-08-21T09:10:39;11.50;;;6.78;;
21833;SDS011;11079;51.092;3.458;2023-08-21T09:13:10;10.20;;;4.95;;
21833;SDS011;11079;51.092;3.458;2023-08-21T09:15:37;10.32;;;4.18;;
21833;SDS011;11079;51.092;3.458;2023-08-21T09:18:03;11.20;;;6.20;;
21833;SDS011;11079;51.092;3.458;2023-08-21T09:20:34;15.38;;;6.85;;
21833;SDS011;11079;51.092;3.458;2023-08-21T09:23:01;11.15;;;6.93;;
21833;SDS011;11079;51.092;3.458;2023-08-21T09:25:28;12.15;;;5.57;;
21833;SDS011;11079;51.092;3.458;2023-08-21T09:28:09;10.35;;;4.70;;
21833;SDS011;11079;51.092;3.458;2023-08-21T09:33:11;11.02;;;5.18;;
21833;SDS011;11079;51.092;3.458;2023-08-21T09:35:37;11.80;;;6.18;;
21833;SDS011;11079;51.092;3.458;2023-08-21T09:38:04;12.32;;;5.38;;
21833;SDS011;11079;51.092;3.458;2023-08-21T09:40:31;17.25;;;6.35;;
21833;SDS011;11079;51.092;3.458;2023-08-21T09:42:57;11.40;;;5.57;;
21833;SDS011;11079;51.092;3.458;2023-08-21T09:45:24;7.45;;;3.00;;
21833;SDS011;11079;51.092;3.458;2023-08-21T09:47:51;7.95;;;3.40;;
21833;SDS011;11079;51.092;3.458;2023-08-21T09:50:18;8.23;;;3.25;;
21833;SDS011;11079;51.092;3.458;2023-08-21T09:52:45;11.07;;;4.57;;
21833;SDS011;11079;51.092;3.458;2023-08-21T09:55:11;6.78;;;3.70;;
21833;SDS011;11079;51.092;3.458;2023-08-21T09:57:40;9.07;;;4.13;;
21833;SDS011;11079;51.092;3.458;2023-08-21T10:00:07;10.63;;;3.80;;
21833;SDS011;11079;51.092;3.458;2023-08-21T10:02:40;6.60;;;3.13;;
21833;SDS011;11079;51.092;3.458;2023-08-21T10:05:10;6.40;;;3.60;;
21833;SDS011;11079;51.092;3.458;2023-08-21T10:07:38;7.57;;;3.72;;
21833;SDS011;11079;51.092;3.458;2023-08-21T10:10:04;5.22;;;2.28;;
21833;SDS011;11079;51.092;3.458;2023-08-21T10:12:30;7.75;;;2.28;;
21833;SDS011;11079;51.092;3.458;2023-08-21T10:14:56;4.88;;;2.20;;
21833;SDS011;11079;51.092;3.458;2023-08-21T10:17:22;4.55;;;3.10;;
21833;SDS011;11079;51.092;3.458;2023-08-21T10:19:51;5.43;;;3.50;;
21833;SDS011;11079;51.092;3.458;2023-08-21T10:22:42;6.55;;;3.65;;
21833;SDS011;11079;51.092;3.458;2023-08-21T10:27:41;4.40;;;2.45;;
21833;SDS011;11079;51.092;3.458;2023-08-21T10:30:14;5.57;;;2.60;;
21833;SDS011;11079;51.092;3.458;2023-08-21T10:32:47;9.45;;;2.70;;
21833;SDS011;11079;51.092;3.458;2023-08-21T10:35:14;5.97;;;3.65;;
21833;SDS011;11079;51.092;3.458;2023-08-21T10:40:30;7.55;;;2.80;;
21833;SDS011;11079;51.092;3.458;2023-08-21T10:42:55;4.95;;;2.35;;
21833;SDS011;11079;51.092;3.458;2023-08-21T10:45:21;9.20;;;2.65;;
21833;SDS011;11079;51.092;3.458;2023-08-21T10:47:47;7.53;;;2.53;;
21833;SDS011;11079;51.092;3.458;2023-08-21T10:50:15;5.47;;;2.10;;
21833;SDS011;11079;51.092;3.458;2023-08-21T10:52:41;6.47;;;2.92;;
21833;SDS011;11079;51.092;3.458;2023-08-21T10:55:10;6.57;;;3.33;;
21833;SDS011;11079;51.092;3.458;2023-08-21T10:57:37;4.03;;;1.75;;
21833;SDS011;11079;51.092;3.458;2023-08-21T11:02:38;5.53;;;2.50;;
21833;SDS011;11079;51.092;3.458;2023-08-21T11:05:04;7.10;;;2.92;;
21833;SDS011;11079;51.092;3.458;2023-08-21T11:07:36;4.57;;;2.50;;
21833;SDS011;11079;51.092;3.458;2023-08-21T11:10:03;3.97;;;2.00;;
21833;SDS011;11079;51.092;3.458;2023-08-21T11:12:30;7.82;;;2.28;;
21833;SDS011;11079;51.092;3.458;2023-08-21T11:14:55;4.78;;;2.05;;
21833;SDS011;11079;51.092;3.458;2023-08-21T11:17:21;4.03;;;1.38;;
21833;SDS011;11079;51.092;3.458;2023-08-21T11:19:48;6.78;;;1.83;;
21833;SDS011;11079;51.092;3.458;2023-08-21T11:22:15;3.40;;;1.73;;
21833;SDS011;11079;51.092;3.458;2023-08-21T11:24:45;5.57;;;1.63;;
21833;SDS011;11079;51.092;3.458;2023-08-21T11:27:13;5.25;;;1.90;;
21833;SDS011;11079;51.092;3.458;2023-08-21T11:29:44;2.85;;;1.60;;
21833;SDS011;11079;51.092;3.458;2023-08-21T11:32:18;4.95;;;1.92;;
21833;SDS011;11079;51.092;3.458;2023-08-21T11:34:47;6.28;;;1.83;;
21833;SDS011;11079;51.092;3.458;2023-08-21T11:37:18;3.70;;;1.85;;
21833;SDS011;11079;51.092;3.458;2023-08-21T11:39:49;3.78;;;1.95;;
21833;SDS011;11079;51.092;3.458;2023-08-21T11:42:19;6.47;;;2.35;;
21833;SDS011;11079;51.092;3.458;2023-08-21T11:47:13;5.50;;;2.30;;
21833;SDS011;11079;51.092;3.458;2023-08-21T11:49:40;9.82;;;2.67;;
21833;SDS011;11079;51.092;3.458;2023-08-21T11:52:07;5.35;;;2.03;;
21833;SDS011;11079;51.092;3.458;2023-08-21T11:54:34;4.70;;;2.10;;
21833;SDS011;11079;51.092;3.458;2023-08-21T11:57:05;4.70;;;1.95;;
21833;SDS011;11079;51.092;3.458;2023-08-21T11:59:37;4.97;;;2.10;;
21833;SDS011;11079;51.092;3.458;2023-08-21T12:02:08;6.65;;;2.20;;
21833;SDS011;11079;51.092;3.458;2023-08-21T12:04:42;4.50;;;2.20;;
21833;SDS011;11079;51.092;3.458;2023-08-21T12:07:08;9.18;;;2.85;;
21833;SDS011;11079;51.092;3.458;2023-08-21T12:09:34;7.30;;;3.42;;
21833;SDS011;11079;51.092;3.458;2023-08-21T12:11:59;6.40;;;3.05;;
21833;SDS011;11079;51.092;3.458;2023-08-21T12:14:28;6.32;;;2.63;;
21833;SDS011;11079;51.092;3.458;2023-08-21T12:16:54;9.82;;;2.88;;
21833;SDS011;11079;51.092;3.458;2023-08-21T12:19:21;4.55;;;2.20;;
21833;SDS011;11079;51.092;3.458;2023-08-21T12:21:48;6.55;;;2.08;;
21833;SDS011;11079;51.092;3.458;2023-08-21T12:24:15;4.18;;;1.65;;
21833;SDS011;11079;51.092;3.458;2023-08-21T12:26:41;5.47;;;1.63;;
21833;SDS011;11079;51.092;3.458;2023-08-21T12:29:06;3.55;;;2.00;;
21833;SDS011;11079;51.092;3.458;2023-08-21T12:31:32;4.25;;;2.00;;
21833;SDS011;11079;51.092;3.458;2023-08-21T12:33:57;4.00;;;1.70;;
21833;SDS011;11079;51.092;3.458;2023-08-21T12:36:24;6.82;;;1.77;;
21833;SDS011;11079;51.092;3.458;2023-08-21T12:38:50;4.53;;;1.60;;
21833;SDS011;11079;51.092;3.458;2023-08-21T12:41:15;4.25;;;1.60;;
21833;SDS011;11079;51.092;3.458;2023-08-21T12:43:41;4.97;;;1.92;;
21833;SDS011;11079;51.092;3.458;2023-08-21T12:46:07;5.25;;;1.85;;
21833;SDS011;11079;51.092;3.458;2023-08-21T12:48:32;6.35;;;2.30;;
21833;SDS011;11079;51.092;3.458;2023-08-21T12:50:58;6.60;;;1.42;;
21833;SDS011;11079;51.092;3.458;2023-08-21T12:53:24;3.90;;;1.75;;
21833;SDS011;11079;51.092;3.458;2023-08-21T12:55:49;5.30;;;1.65;;
21833;SDS011;11079;51.092;3.458;2023-08-21T12:58:15;3.20;;;0.93;;
21833;SDS011;11079;51.092;3.458;2023-08-21T13:00:41;3.97;;;1.30;;
21833;SDS011;11079;51.092;3.458;2023-08-21T13:03:06;2.83;;;0.98;;
21833;SDS011;11079;51.092;3.458;2023-08-21T13:05:33;4.13;;;1.75;;
21833;SDS011;11079;51.092;3.458;2023-08-21T13:07:59;4.60;;;1.05;;
21833;SDS011;11079;51.092;3.458;2023-08-21T13:10:25;6.22;;;1.98;;
21833;SDS011;11079;51.092;3.458;2023-08-21T13:12:50;5.03;;;1.50;;
21833;SDS011;11079;51.092;3.458;2023-08-21T13:15:17;3.95;;;1.17;;
21833;SDS011;11079;51.092;3.458;2023-08-21T13:17:42;3.10;;;1.05;;
21833;SDS011;11079;51.092;3.458;2023-08-21T13:20:08;2.28;;;0.93;;
21833;SDS011;11079;51.092;3.458;2023-08-21T13:25:12;3.45;;;1.13;;
21833;SDS011;11079;51.092;3.458;2023-08-21T13:27:38;4.28;;;1.08;;
21833;SDS011;11079;51.092;3.458;2023-08-21T13:30:03;4.90;;;1.33;;
21833;SDS011;11079;51.092;3.458;2023-08-21T13:32:30;3.50;;;1.50;;
21833;SDS011;11079;51.092;3.458;2023-08-21T13:34:57;5.60;;;1.60;;
21833;SDS011;11079;51.092;3.458;2023-08-21T13:37:24;4.95;;;1.95;;
21833;SDS011;11079;51.092;3.458;2023-08-21T13:39:51;5.22;;;2.00;;
21833;SDS011;11079;51.092;3.458;2023-08-21T13:42:17;5.03;;;1.60;;
21833;SDS011;11079;51.092;3.458;2023-08-21T13:44:47;5.20;;;1.38;;
21833;SDS011;11079;51.092;3.458;2023-08-21T13:47:13;4.65;;;1.40;;
21833;SDS011;11079;51.092;3.458;2023-08-21T13:49:39;4.15;;;1.45;;
21833;SDS011;11079;51.092;3.458;2023-08-21T13:52:06;4.70;;;1.48;;
21833;SDS011;11079;51.092;3.458;2023-08-21T13:54:31;4.85;;;1.58;;
21833;SDS011;11079;51.092;3.458;2023-08-21T13:56:57;5.43;;;1.50;;
21833;SDS011;11079;51.092;3.458;2023-08-21T13:59:25;7.28;;;1.45;;
21833;SDS011;11079;51.092;3.458;2023-08-21T14:01:51;4.22;;;1.10;;
21833;SDS011;11079;51.092;3.458;2023-08-21T14:04:16;2.72;;;0.90;;
21833;SDS011;11079;51.092;3.458;2023-08-21T14:06:42;3.85;;;1.30;;
21833;SDS011;11079;51.092;3.458;2023-08-21T14:09:08;2.67;;;1.00;;
21833;SDS011;11079;51.092;3.458;2023-08-21T14:11:34;2.40;;;0.95;;
21833;SDS011;11079;51.092;3.458;2023-08-21T14:14:00;4.53;;;1.40;;
21833;SDS011;11079;51.092;3.458;2023-08-21T14:16:25;4.80;;;1.40;;
21833;SDS011;11079;51.092;3.458;2023-08-21T14:18:51;3.50;;;1.38;;
21833;SDS011;11079;51.092;3.458;2023-08-21T14:21:16;4.13;;;1.83;;
21833;SDS011;11079;51.092;3.458;2023-08-21T14:23:42;5.68;;;1.40;;
21833;SDS011;11079;51.092;3.458;2023-08-21T14:26:08;4.00;;;1.40;;
21833;SDS011;11079;51.092;3.458;2023-08-21T14:28:33;3.20;;;1.73;;
21833;SDS011;11079;51.092;3.458;2023-08-21T14:30:59;4.50;;;1.50;;
21833;SDS011;11079;51.092;3.458;2023-08-21T14:33:25;5.47;;;2.15;;
21833;SDS011;11079;51.092;3.458;2023-08-21T14:35:50;7.20;;;2.08;;
21833;SDS011;11079;51.092;3.458;2023-08-21T14:38:16;5.10;;;2.38;;
21833;SDS011;11079;51.092;3.458;2023-08-21T14:40:42;4.82;;;2.40;;
21833;SDS011;11079;51.092;3.458;2023-08-21T14:43:07;5.50;;;2.47;;
21833;SDS011;11079;51.092;3.458;2023-08-21T14:45:33;7.40;;;2.72;;
21833;SDS011;11079;51.092;3.458;2023-08-21T14:47:59;7.95;;;3.15;;
21833;SDS011;11079;51.092;3.458;2023-08-21T14:50:25;7.38;;;3.65;;
21833;SDS011;11079;51.092;3.458;2023-08-21T14:52:50;10.73;;;3.10;;
21833;SDS011;11079;51.092;3.458;2023-08-21T14:55:16;7.80;;;3.20;;
21833;SDS011;11079;51.092;3.458;2023-08-21T14:57:43;7.75;;;3.42;;
21833;SDS011;11079;51.092;3.458;2023-08-21T15:00:09;8.07;;;4.35;;
21833;SDS011;11079;51.092;3.458;2023-08-21T15:02:36;10.75;;;3.47;;
21833;SDS011;11079;51.092;3.458;2023-08-21T15:05:02;5.88;;;3.72;;
21833;SDS011;11079;51.092;3.458;2023-08-21T15:07:31;7.30;;;3.90;;
21833;SDS011;11079;51.092;3.458;2023-08-21T15:09:56;7.57;;;3.92;;
21833;SDS011;11079;51.092;3.458;2023-08-21T15:12:22;8.75;;;3.42;;
21833;SDS011;11079;51.092;3.458;2023-08-21T15:14:48;8.70;;;3.88;;